Murphy's Hourly Summary for Saturday, April 15, 2017
Hour Temp
(f)
RH
(%)
Solar Rad.
(MJ/m2)
Rainfall
(in)
Wind
(mph)
4/15/2017 12:00 AM 68 66 0 0 1.45
4/15/2017 1:00 AM 67 70 0 0 2.65
4/15/2017 2:00 AM 67 73 0 0 3.84
4/15/2017 3:00 AM 66 78 0 0 3.57
4/15/2017 4:00 AM 65 82 0 0 3.02
4/15/2017 5:00 AM 65 84 0 0 1.92
4/15/2017 6:00 AM 64 87 0 0 1.69
4/15/2017 7:00 AM 65 88 0 0 4.57
4/15/2017 8:00 AM 65 85 0.1 0 3.97
4/15/2017 9:00 AM 66 81 0.44 0 4.65
4/15/2017 10:00 AM 68 73 1.27 0 6.01
4/15/2017 11:00 AM 71 64 2.03 0 6.3
4/15/2017 12:00 PM 73 60 2.76 0 6.76
4/15/2017 1:00 PM 75 56 3.13 0 6.52
4/15/2017 2:00 PM 77 53 2.85 0 6.49
4/15/2017 3:00 PM 77 52 1.98 0 6.6
4/15/2017 4:00 PM 77 53 1.38 0 6.62
4/15/2017 5:00 PM 77 54 1.17 0 6.03
4/15/2017 6:00 PM 77 56 0.65 0 5.01
4/15/2017 7:00 PM 76 55 0.35 0 5.64
4/15/2017 8:00 PM 75 60 0.14 0 5.01
4/15/2017 9:00 PM 73 64 0 0 3.18
4/15/2017 10:00 PM 72 67 0 0 2.41
4/15/2017 11:00 PM 71 70 0 0 2.3
Data Summary 70 67 18.25 0.00 4.43